createdAt,value
2023-03-03T00:00:27.764Z,69.26
2023-03-03T00:02:58.193Z,68.77
2023-03-03T00:05:25.594Z,68.83
2023-03-03T00:07:52.879Z,69.57
2023-03-03T00:10:20.216Z,68.85
2023-03-03T00:12:49.882Z,69.12
2023-03-03T00:15:19.582Z,69.60
2023-03-03T00:17:47.043Z,69.41
2023-03-03T00:20:35.673Z,69.31
2023-03-03T00:23:27.441Z,69.71
2023-03-03T00:25:54.980Z,69.99
2023-03-03T00:28:25.994Z,69.59
2023-03-03T00:30:55.234Z,68.94
2023-03-03T00:33:34.738Z,68.32
2023-03-03T00:36:29.031Z,67.88
2023-03-03T00:39:00.650Z,68.29
2023-03-03T00:41:28.496Z,70.42
2023-03-03T00:43:55.929Z,70.49
2023-03-03T00:46:24.298Z,69.40
2023-03-03T00:48:51.862Z,69.61
2023-03-03T00:51:34.549Z,69.55
2023-03-03T00:54:02.046Z,69.25
2023-03-03T00:56:29.389Z,69.95
2023-03-03T00:58:57.558Z,70.34
2023-03-03T01:01:27.106Z,69.93
2023-03-03T01:03:55.090Z,70.27
2023-03-03T01:06:22.631Z,70.04
2023-03-03T01:08:50.580Z,69.61
2023-03-03T01:11:22.708Z,70.08
2023-03-03T01:13:50.912Z,69.48
2023-03-03T01:16:19.227Z,70.01
2023-03-03T01:18:46.611Z,71.07
2023-03-03T01:21:13.976Z,70.80
2023-03-03T01:23:41.466Z,71.37
2023-03-03T01:26:09.080Z,71.71
2023-03-03T01:28:36.573Z,72.89
2023-03-03T01:31:05.353Z,73.44
2023-03-03T01:33:34.561Z,73.59
2023-03-03T01:36:02.666Z,74.14
2023-03-03T01:38:30.563Z,73.41
2023-03-03T01:40:59.759Z,73.92
2023-03-03T01:43:31.788Z,73.70
2023-03-03T01:45:58.990Z,72.93
2023-03-03T01:48:37.416Z,73.54
2023-03-03T01:51:08.017Z,73.49
2023-03-03T01:53:51.645Z,73.99
2023-03-03T01:56:19.243Z,74.11
2023-03-03T01:58:50.216Z,74.74
2023-03-03T02:01:22.700Z,74.86
2023-03-03T02:03:50.908Z,74.98
2023-03-03T02:06:20.911Z,74.79
2023-03-03T02:09:08.469Z,74.50
2023-03-03T02:11:37.099Z,75.30
2023-03-03T02:14:04.482Z,74.72
2023-03-03T02:16:32.032Z,75.03
2023-03-03T02:19:00.356Z,75.47
2023-03-03T02:21:28.006Z,75.45
2023-03-03T02:23:59.888Z,75.40
2023-03-03T02:26:29.476Z,75.25
2023-03-03T02:29:01.946Z,75.24
2023-03-03T02:31:33.493Z,75.77
2023-03-03T02:34:00.889Z,76.02
2023-03-03T02:36:32.627Z,76.72
2023-03-03T02:39:27.149Z,78.87
2023-03-03T02:42:15.186Z,79.42
2023-03-03T02:44:48.737Z,79.51
2023-03-03T02:47:16.489Z,78.97
2023-03-03T02:49:45.143Z,78.34
2023-03-03T02:52:14.828Z,79.28
2023-03-03T02:54:45.380Z,78.53
2023-03-03T02:57:12.790Z,79.03
2023-03-03T02:59:40.284Z,79.07
2023-03-03T03:02:12.499Z,78.98
2023-03-03T03:04:39.896Z,79.15
2023-03-03T03:07:07.835Z,78.70
2023-03-03T03:09:37.507Z,79.77
2023-03-03T03:12:05.424Z,80.42
2023-03-03T03:14:35.574Z,80.67
2023-03-03T03:17:03.119Z,80.82
2023-03-03T03:19:30.755Z,80.73
2023-03-03T03:22:01.638Z,80.28
2023-03-03T03:24:30.360Z,79.98
2023-03-03T03:27:02.919Z,80.21
2023-03-03T03:29:31.255Z,79.50
2023-03-03T03:31:58.780Z,79.35
2023-03-03T03:34:26.702Z,79.86
2023-03-03T03:36:55.243Z,79.73
2023-03-03T03:39:24.412Z,80.57
2023-03-03T03:41:53.437Z,82.02
2023-03-03T03:44:21.963Z,81.59
2023-03-03T03:46:49.228Z,81.97
2023-03-03T03:49:16.734Z,82.40
2023-03-03T03:51:44.275Z,81.88
2023-03-03T03:54:15.327Z,81.51
2023-03-03T03:56:43.676Z,81.33
2023-03-03T03:59:11.418Z,80.88
2023-03-03T04:01:39.424Z,80.83
2023-03-03T04:04:06.832Z,80.35
2023-03-03T04:06:35.029Z,80.36
2023-03-03T04:09:02.881Z,81.46
2023-03-03T04:11:31.616Z,81.41
2023-03-03T04:13:59.480Z,81.57
2023-03-03T04:16:27.751Z,80.09
2023-03-03T04:18:55.346Z,80.64
2023-03-03T04:21:22.978Z,80.37
2023-03-03T04:23:53.280Z,80.99
2023-03-03T04:26:20.763Z,82.02
2023-03-03T04:28:49.317Z,81.74
2023-03-03T04:31:17.093Z,81.50
2023-03-03T04:33:44.511Z,82.04
2023-03-03T04:36:12.189Z,82.58
2023-03-03T04:38:39.602Z,81.50
2023-03-03T04:41:07.040Z,82.32
2023-03-03T04:43:38.286Z,83.79
2023-03-03T04:46:06.298Z,84.42
2023-03-03T04:48:34.740Z,84.39
2023-03-03T04:51:02.121Z,85.37
2023-03-03T04:53:31.749Z,85.12
2023-03-03T04:55:59.164Z,84.93
2023-03-03T04:58:26.870Z,84.46
2023-03-03T05:00:57.140Z,85.06
2023-03-03T05:03:27.194Z,85.11
2023-03-03T05:05:54.646Z,84.58
2023-03-03T05:08:22.052Z,83.97
2023-03-03T05:10:53.792Z,84.09
2023-03-03T05:13:21.501Z,84.09
2023-03-03T05:15:55.481Z,84.29
2023-03-03T05:18:24.508Z,84.66
2023-03-03T05:20:52.555Z,85.23
2023-03-03T05:23:21.204Z,84.67
2023-03-03T05:25:50.057Z,83.74
2023-03-03T05:28:17.945Z,83.53
2023-03-03T05:30:45.838Z,83.99
2023-03-03T05:33:15.188Z,84.14
2023-03-03T05:35:43.208Z,84.21
2023-03-03T05:38:11.017Z,84.33
2023-03-03T05:40:38.940Z,84.63
2023-03-03T05:43:07.240Z,84.07
2023-03-03T05:45:35.484Z,84.02
2023-03-03T05:48:04.117Z,83.71
2023-03-03T05:50:32.224Z,83.65
2023-03-03T05:53:00.838Z,82.58
2023-03-03T05:55:28.335Z,82.58
2023-03-03T05:57:56.150Z,84.11
2023-03-03T06:00:23.454Z,83.73
2023-03-03T06:02:50.841Z,84.19
2023-03-03T06:05:18.559Z,84.35
2023-03-03T06:07:46.242Z,84.11
2023-03-03T06:10:13.582Z,83.08
2023-03-03T06:12:42.692Z,82.11
2023-03-03T06:15:10.792Z,82.30
2023-03-03T06:17:38.565Z,84.07
2023-03-03T06:20:06.862Z,84.09
2023-03-03T06:22:34.263Z,83.93
2023-03-03T06:25:01.579Z,84.36
2023-03-03T06:27:29.079Z,84.44
2023-03-03T06:29:56.412Z,84.11
2023-03-03T06:32:23.716Z,84.02
2023-03-03T06:34:51.090Z,84.59
2023-03-03T06:37:18.399Z,84.34
2023-03-03T06:39:45.917Z,84.66
2023-03-03T06:42:13.420Z,84.72
2023-03-03T06:44:40.696Z,85.18
2023-03-03T06:47:08.123Z,84.98
2023-03-03T06:49:35.674Z,84.04
2023-03-03T06:52:11.962Z,84.00
2023-03-03T06:54:39.464Z,85.11
2023-03-03T06:57:17.794Z,84.34
2023-03-03T06:59:45.468Z,83.83
2023-03-03T07:02:17.170Z,83.45
2023-03-03T07:04:47.024Z,84.39
2023-03-03T07:07:23.179Z,84.17
2023-03-03T07:09:53.638Z,83.95
2023-03-03T07:12:23.807Z,83.59
2023-03-03T07:14:56.405Z,84.58
2023-03-03T07:17:25.448Z,84.27
2023-03-03T07:19:52.797Z,84.30
2023-03-03T07:22:22.107Z,85.07
2023-03-03T07:24:53.165Z,84.80
2023-03-03T07:27:27.083Z,85.02
2023-03-03T07:29:56.423Z,88.80
2023-03-03T07:32:38.408Z,80.88
2023-03-03T07:35:39.009Z,83.00
2023-03-03T07:38:26.533Z,83.21
2023-03-03T07:40:56.131Z,84.23
2023-03-03T07:43:37.570Z,85.63
2023-03-03T07:46:11.522Z,85.85
2023-03-03T07:48:41.949Z,86.41
2023-03-03T07:51:41.888Z,85.70
2023-03-03T07:54:28.688Z,85.61
2023-03-03T07:57:31.589Z,85.40
2023-03-03T08:00:28.669Z,85.80
2023-03-03T08:03:12.913Z,85.69
2023-03-03T08:05:45.270Z,86.20
2023-03-03T08:08:16.284Z,86.58
2023-03-03T08:10:54.389Z,87.75
2023-03-03T08:13:29.170Z,87.64
2023-03-03T08:16:16.904Z,87.34
2023-03-03T08:18:47.691Z,87.41
2023-03-03T08:21:15.821Z,86.81
2023-03-03T08:23:43.413Z,89.54
2023-03-03T08:26:12.701Z,89.17
2023-03-03T08:28:40.034Z,88.74
2023-03-03T08:31:20.053Z,88.14
2023-03-03T08:33:53.317Z,87.95
2023-03-03T08:36:20.811Z,86.79
2023-03-03T08:38:48.315Z,87.29
2023-03-03T08:41:15.747Z,87.20
2023-03-03T08:43:45.421Z,87.37
2023-03-03T08:46:12.870Z,88.21
2023-03-03T08:48:40.169Z,87.34
2023-03-03T08:51:07.842Z,87.19
2023-03-03T08:53:36.660Z,87.78
2023-03-03T08:56:05.253Z,86.94
2023-03-03T08:58:35.479Z,87.43
2023-03-03T09:01:04.354Z,86.73
2023-03-03T09:03:31.774Z,85.80
2023-03-03T09:05:59.321Z,86.05
2023-03-03T09:08:26.584Z,86.61
2023-03-03T09:10:53.978Z,85.18
2023-03-03T09:13:21.683Z,83.61
2023-03-03T09:15:49.349Z,83.17
2023-03-03T09:18:36.094Z,83.85
2023-03-03T09:21:18.178Z,82.60
2023-03-03T09:24:05.716Z,81.37
2023-03-03T09:26:48.841Z,81.80
2023-03-03T09:29:17.820Z,80.77
2023-03-03T09:31:59.317Z,80.84
2023-03-03T09:34:36.046Z,80.30
2023-03-03T09:37:40.584Z,78.50
2023-03-03T09:40:37.158Z,79.69
2023-03-03T09:43:24.431Z,79.96
2023-03-03T09:46:15.893Z,81.21
2023-03-03T09:49:01.235Z,81.21
2023-03-03T09:51:42.926Z,80.22
2023-03-03T09:54:24.219Z,78.98
2023-03-03T09:57:17.802Z,78.00
2023-03-03T09:59:57.803Z,76.35
2023-03-03T10:02:43.721Z,77.37
2023-03-03T10:05:17.455Z,76.65
2023-03-03T10:08:19.020Z,75.96
2023-03-03T10:10:55.652Z,75.75
2023-03-03T10:13:35.448Z,75.53
2023-03-03T10:16:23.273Z,75.86
2023-03-03T10:19:29.098Z,75.20
2023-03-03T10:22:43.180Z,74.47
2023-03-03T10:25:22.057Z,73.16
2023-03-03T10:27:52.660Z,72.97
2023-03-03T10:30:42.617Z,72.79
2023-03-03T10:33:36.435Z,72.09
2023-03-03T10:36:30.656Z,72.16
2023-03-03T10:39:10.727Z,72.40
2023-03-03T10:42:11.526Z,72.65
2023-03-03T10:44:54.068Z,72.05
2023-03-03T10:47:34.069Z,71.08
2023-03-03T10:50:11.032Z,71.16
2023-03-03T10:52:47.659Z,70.70
2023-03-03T10:55:57.746Z,70.05
2023-03-03T10:58:39.752Z,69.86
2023-03-03T11:01:27.348Z,71.12
2023-03-03T11:04:12.926Z,69.93
2023-03-03T11:06:47.726Z,69.29
2023-03-03T11:09:17.797Z,68.95
2023-03-03T11:11:55.803Z,68.96
2023-03-03T11:14:47.496Z,67.14
2023-03-03T11:17:36.164Z,66.59
2023-03-03T11:20:13.287Z,66.96
2023-03-03T11:22:56.865Z,67.46
2023-03-03T11:25:35.477Z,67.93
2023-03-03T11:28:11.148Z,67.74
2023-03-03T11:30:59.988Z,67.95
2023-03-03T11:33:54.175Z,66.53
2023-03-03T11:36:34.852Z,68.00
2023-03-03T11:39:10.003Z,65.72
2023-03-03T11:42:08.554Z,65.54
2023-03-03T11:44:39.583Z,64.83
2023-03-03T11:47:31.583Z,63.90
2023-03-03T11:50:17.816Z,63.37
2023-03-03T11:53:25.037Z,63.59
2023-03-03T11:56:17.358Z,63.44
2023-03-03T11:58:54.969Z,63.61
2023-03-03T12:01:43.296Z,62.48
2023-03-03T12:04:22.388Z,62.41
2023-03-03T12:06:58.653Z,60.97
2023-03-03T12:09:32.175Z,60.64
2023-03-03T12:12:11.040Z,59.90
2023-03-03T12:15:08.816Z,59.72
2023-03-03T12:17:39.315Z,59.89
2023-03-03T12:20:13.988Z,59.99
2023-03-03T12:23:04.470Z,59.32
2023-03-03T12:25:41.739Z,58.32
2023-03-03T12:28:41.218Z,57.51
2023-03-03T12:31:49.128Z,58.17
2023-03-03T12:34:54.821Z,57.50
2023-03-03T12:37:42.544Z,57.95
2023-03-03T12:40:21.106Z,57.31
2023-03-03T12:43:23.457Z,56.34
2023-03-03T12:46:00.596Z,56.71
2023-03-03T12:48:47.098Z,56.87
2023-03-03T12:51:45.714Z,56.58
2023-03-03T12:54:25.853Z,56.05
2023-03-03T12:56:55.766Z,55.51
2023-03-03T12:59:36.600Z,54.59
2023-03-03T13:02:25.441Z,54.39
2023-03-03T13:05:05.334Z,54.61
2023-03-03T13:08:08.566Z,53.36
2023-03-03T13:11:00.596Z,53.49
2023-03-03T13:13:44.499Z,54.08
2023-03-03T13:16:17.143Z,52.76
2023-03-03T13:19:08.392Z,52.55
2023-03-03T13:21:48.936Z,51.87
2023-03-03T13:24:28.598Z,51.46
2023-03-03T13:27:06.233Z,50.49
2023-03-03T13:29:37.961Z,51.30
2023-03-03T13:32:05.487Z,52.21
2023-03-03T13:34:50.763Z,52.85
2023-03-03T13:37:22.008Z,52.56
2023-03-03T13:40:12.547Z,51.51
2023-03-03T13:43:05.378Z,51.58
2023-03-03T13:45:39.164Z,51.51
2023-03-03T13:48:31.625Z,51.27
2023-03-03T13:51:27.172Z,51.42
2023-03-03T13:54:15.781Z,56.03
2023-03-03T13:57:11.962Z,50.18
2023-03-03T13:59:58.632Z,50.79
2023-03-03T14:02:53.903Z,51.07
2023-03-03T14:05:46.506Z,49.97
2023-03-03T14:08:51.836Z,50.10
2023-03-03T14:11:56.472Z,49.76
2023-03-03T14:15:07.020Z,50.00
2023-03-03T14:17:41.083Z,49.58
2023-03-03T14:20:25.189Z,49.58
2023-03-03T14:22:55.548Z,49.40
2023-03-03T14:25:23.595Z,48.78
2023-03-03T14:28:02.607Z,48.13
2023-03-03T14:30:39.861Z,48.65
2023-03-03T14:33:31.653Z,48.96
2023-03-03T14:35:59.487Z,48.80
2023-03-03T14:38:32.671Z,48.76
2023-03-03T14:41:12.099Z,47.92
2023-03-03T14:43:40.477Z,47.55
2023-03-03T14:46:26.770Z,47.68
2023-03-03T14:48:56.373Z,47.59
2023-03-03T14:51:24.625Z,47.71
2023-03-03T14:53:52.418Z,48.07
2023-03-03T14:56:36.215Z,48.84
2023-03-03T14:59:12.410Z,48.71
2023-03-03T15:01:39.979Z,49.03
2023-03-03T15:04:16.618Z,48.86
2023-03-03T15:06:45.106Z,49.40
2023-03-03T15:09:50.474Z,49.09
2023-03-03T15:12:26.661Z,49.08
2023-03-03T15:15:02.966Z,48.33
2023-03-03T15:17:41.566Z,48.93
2023-03-03T15:20:10.525Z,47.82
2023-03-03T15:22:48.709Z,48.15
2023-03-03T15:25:41.987Z,48.52
2023-03-03T15:28:44.795Z,48.88
2023-03-03T15:31:41.183Z,47.80
2023-03-03T15:34:24.000Z,48.08
2023-03-03T15:36:57.368Z,47.89
2023-03-03T15:40:04.125Z,48.46
2023-03-03T15:42:39.374Z,48.92
2023-03-03T15:45:17.015Z,49.19
2023-03-03T15:47:56.561Z,49.48
2023-03-03T15:50:53.360Z,49.48
2023-03-03T15:53:46.059Z,50.68
2023-03-03T15:56:30.950Z,51.03
2023-03-03T15:59:02.428Z,51.93
2023-03-03T16:01:36.236Z,52.05
2023-03-03T16:04:13.728Z,51.93
2023-03-03T16:07:06.138Z,52.05
2023-03-03T16:09:57.976Z,53.62
2023-03-03T16:12:35.024Z,53.51
2023-03-03T16:15:25.102Z,53.60
2023-03-03T16:18:10.889Z,53.75
2023-03-03T16:20:57.222Z,54.21
2023-03-03T16:23:27.829Z,53.99
2023-03-03T16:26:05.286Z,54.26
2023-03-03T16:29:00.919Z,54.34
2023-03-03T16:31:38.233Z,55.07
2023-03-03T16:34:15.054Z,55.44
2023-03-03T16:36:54.886Z,56.25
2023-03-03T16:39:40.736Z,55.93
2023-03-03T16:42:18.322Z,56.16
2023-03-03T16:44:58.867Z,55.83
2023-03-03T16:47:38.252Z,56.00
2023-03-03T16:50:50.530Z,56.80
2023-03-03T16:53:33.359Z,57.09
2023-03-03T16:56:23.593Z,57.11
2023-03-03T16:58:53.936Z,56.44
2023-03-03T17:01:30.122Z,57.16
2023-03-03T17:04:28.763Z,57.85
2023-03-03T17:07:03.569Z,57.71
2023-03-03T17:09:34.175Z,58.68
2023-03-03T17:12:23.335Z,59.76
2023-03-03T17:15:06.422Z,60.02
2023-03-03T17:17:36.891Z,60.22
2023-03-03T17:20:15.711Z,59.63
2023-03-03T17:23:09.621Z,59.88
2023-03-03T17:26:13.577Z,60.05
2023-03-03T17:28:46.912Z,59.46
2023-03-03T17:31:26.783Z,60.44
2023-03-03T17:34:16.200Z,60.90
2023-03-03T17:36:57.680Z,61.23
2023-03-03T17:39:46.506Z,62.11
2023-03-03T17:42:22.276Z,63.15
2023-03-03T17:45:03.063Z,63.43
2023-03-03T17:47:58.195Z,62.12
2023-03-03T17:50:53.833Z,62.08
2023-03-03T17:53:37.996Z,62.93
2023-03-03T17:56:59.692Z,63.28
2023-03-03T17:59:42.536Z,63.25
2023-03-03T18:02:37.565Z,64.00
2023-03-03T18:05:25.448Z,63.96
2023-03-03T18:08:24.986Z,64.43
2023-03-03T18:10:58.272Z,64.24
2023-03-03T18:13:44.298Z,64.17
2023-03-03T18:16:41.923Z,64.54
2023-03-03T18:19:18.418Z,64.49
2023-03-03T18:21:48.746Z,65.25
2023-03-03T18:24:16.170Z,65.53
2023-03-03T18:26:43.913Z,65.15
2023-03-03T18:29:20.546Z,64.97
2023-03-03T18:31:48.031Z,64.86
2023-03-03T18:34:21.501Z,64.83
2023-03-03T18:37:11.059Z,65.51
2023-03-03T18:40:10.597Z,66.23
2023-03-03T18:42:40.874Z,66.51
2023-03-03T18:45:20.477Z,66.33
2023-03-03T18:47:59.798Z,66.61
2023-03-03T18:50:34.965Z,67.30
2023-03-03T18:53:18.022Z,67.20
2023-03-03T18:55:47.319Z,67.19
2023-03-03T18:58:14.499Z,67.39
2023-03-03T19:01:00.142Z,66.97
2023-03-03T19:03:36.406Z,67.31
2023-03-03T19:06:08.558Z,67.47
2023-03-03T19:08:45.101Z,67.42
2023-03-03T19:11:40.749Z,68.72
2023-03-03T19:14:17.425Z,67.93
2023-03-03T19:16:45.545Z,67.77
2023-03-03T19:19:23.751Z,67.92
2023-03-03T19:22:01.570Z,67.73
2023-03-03T19:24:33.804Z,66.98
2023-03-03T19:27:31.218Z,67.01
2023-03-03T19:30:04.891Z,67.93
2023-03-03T19:33:10.532Z,66.95
2023-03-03T19:35:52.188Z,68.31
2023-03-03T19:38:46.059Z,68.30
2023-03-03T19:41:29.184Z,68.37
2023-03-03T19:44:00.162Z,69.32
2023-03-03T19:46:36.504Z,69.70
2023-03-03T19:49:35.641Z,69.25
2023-03-03T19:52:08.818Z,70.09
2023-03-03T19:54:57.343Z,69.73
2023-03-03T19:57:35.090Z,69.23
2023-03-03T20:00:34.578Z,69.51
2023-03-03T20:03:29.448Z,69.23
2023-03-03T20:06:20.825Z,69.02
2023-03-03T20:09:23.479Z,69.66
2023-03-03T20:11:53.722Z,70.24
2023-03-03T20:14:33.618Z,70.16
2023-03-03T20:17:30.711Z,70.63
2023-03-03T20:20:15.615Z,70.52
2023-03-03T20:23:07.206Z,70.48
2023-03-03T20:25:44.991Z,70.24
2023-03-03T20:28:38.259Z,71.20
2023-03-03T20:31:06.967Z,70.90
2023-03-03T20:33:52.734Z,70.10
2023-03-03T20:36:28.737Z,69.80
2023-03-03T20:39:02.089Z,70.84
2023-03-03T20:41:58.769Z,70.61
2023-03-03T20:44:41.454Z,72.02
2023-03-03T20:47:30.857Z,71.39
2023-03-03T20:50:15.368Z,70.25
2023-03-03T20:52:49.233Z,71.12
2023-03-03T20:55:24.739Z,72.02
2023-03-03T20:57:58.048Z,72.08
2023-03-03T21:00:46.311Z,71.84
2023-03-03T21:03:19.861Z,72.66
2023-03-03T21:06:09.550Z,72.17
2023-03-03T21:08:40.851Z,71.42
2023-03-03T21:11:08.601Z,72.17
2023-03-03T21:13:41.319Z,72.31
2023-03-03T21:16:39.059Z,71.78
2023-03-03T21:19:10.653Z,72.56
2023-03-03T21:21:43.109Z,72.04
2023-03-03T21:24:19.818Z,72.54
2023-03-03T21:26:55.625Z,72.06
2023-03-03T21:29:34.555Z,70.48
2023-03-03T21:32:09.742Z,72.24
2023-03-03T21:34:39.353Z,73.11
2023-03-03T21:37:12.651Z,72.96
2023-03-03T21:39:41.928Z,73.46
2023-03-03T21:42:13.343Z,72.08
2023-03-03T21:44:46.681Z,72.18
2023-03-03T21:47:19.119Z,72.03
2023-03-03T21:49:49.221Z,72.92
2023-03-03T21:52:18.643Z,72.17
2023-03-03T21:54:47.308Z,72.93
2023-03-03T21:57:15.486Z,73.74
2023-03-03T21:59:43.108Z,73.51
2023-03-03T22:02:10.666Z,73.40
2023-03-03T22:04:41.118Z,73.40
2023-03-03T22:07:09.005Z,73.76
2023-03-03T22:09:37.192Z,73.92
2023-03-03T22:12:05.935Z,73.78
2023-03-03T22:14:33.438Z,74.52
2023-03-03T22:17:00.928Z,73.96
2023-03-03T22:19:28.282Z,73.83
2023-03-03T22:21:55.752Z,74.46
2023-03-03T22:24:23.049Z,73.87
2023-03-03T22:26:50.319Z,73.73
2023-03-03T22:29:22.853Z,74.70
2023-03-03T22:31:51.168Z,75.01
2023-03-03T22:34:18.770Z,74.71
2023-03-03T22:36:46.591Z,74.10
2023-03-03T22:39:14.070Z,73.72
2023-03-03T22:41:41.423Z,73.87
2023-03-03T22:44:08.708Z,73.39
2023-03-03T22:46:36.061Z,73.08
2023-03-03T22:49:03.461Z,73.81
2023-03-03T22:51:30.897Z,73.82
2023-03-03T22:53:58.263Z,73.36
2023-03-03T22:56:25.834Z,74.02
2023-03-03T22:58:53.605Z,73.74
2023-03-03T23:01:21.169Z,73.51
2023-03-03T23:03:50.198Z,74.49
2023-03-03T23:06:17.608Z,73.53
2023-03-03T23:08:44.961Z,73.38
2023-03-03T23:11:12.518Z,73.57
2023-03-03T23:13:39.881Z,73.13
2023-03-03T23:16:07.505Z,73.14
2023-03-03T23:18:34.957Z,72.81
2023-03-03T23:21:02.486Z,72.90
2023-03-03T23:23:30.687Z,74.00
2023-03-03T23:25:58.051Z,74.48
2023-03-03T23:28:25.343Z,75.08
2023-03-03T23:30:52.745Z,74.55
2023-03-03T23:33:20.466Z,75.71
2023-03-03T23:35:49.830Z,75.70
2023-03-03T23:38:17.837Z,75.28
2023-03-03T23:40:46.855Z,75.52
2023-03-03T23:43:14.969Z,75.99
2023-03-03T23:45:42.248Z,75.91
2023-03-03T23:48:10.216Z,75.09
2023-03-03T23:50:38.180Z,76.11
2023-03-03T23:53:06.641Z,76.34
2023-03-03T23:55:34.851Z,75.68
2023-03-03T23:58:02.173Z,75.45
